| time (UTC) | temp F | wind direction | speed knots | gust knots | rain 1hr in | rain 24hr in | rain mn in | humidity % | barometer mb |
| 20260506002109 | 71 | 280 | 6.1 | 8.7 | 0.00 | 0.27 | 0.27 | 32 | 1011.5 |
| 20260506001605 | 72 | 248 | 2.6 | 2.6 | 0.00 | 0.27 | 0.27 | 35 | 1011.7 |
| 20260506001102 | 71 | 320 | 4.3 | 7.0 | 0.00 | 0.27 | 0.27 | 33 | 1011.8 |
| 20260506000600 | 72 | 271 | 3.5 | 4.3 | 0.00 | 0.27 | 0.27 | 34 | 1011.5 |
| 20260506000057 | 72 | 273 | 7.0 | 12.2 | 0.00 | 0.27 | 0.27 | 33 | 1011.7 |
| 20260505235555 | 73 | 262 | 6.1 | 7.0 | 0.00 | 0.27 | 0.27 | 33 | 1011.4 |
| 20260505235052 | 72 | 295 | 3.5 | 5.2 | 0.00 | 0.27 | 0.27 | 33 | 1011.6 |
| 20260505234548 | 73 | 287 | 6.1 | 8.7 | 0.00 | 0.27 | 0.27 | 32 | 1011.5 |
| 20260505234044 | 73 | 292 | 4.3 | 6.1 | 0.00 | 0.27 | 0.27 | 33 | 1011.5 |
| 20260505233542 | 72 | 142 | 4.3 | 6.1 | 0.00 | 0.27 | 0.27 | 32 | 1011.3 |
| 20260505233039 | 73 | 230 | 4.3 | 6.1 | 0.00 | 0.27 | 0.27 | 33 | 1011.4 |
| 20260505232537 | 73 | 296 | 6.1 | 11.3 | 0.00 | 0.27 | 0.27 | 31 | 1011.6 |
| 20260505232035 | 73 | 268 | 3.5 | 5.2 | 0.00 | 0.27 | 0.27 | 31 | 1011.4 |
| 20260505231531 | 72 | 324 | 2.6 | 4.3 | 0.00 | 0.27 | 0.27 | 32 | 1011.7 |
| 20260505231030 | 72 | 235 | 3.5 | 4.3 | 0.00 | 0.27 | 0.27 | 32 | 1011.6 |
| 20260505230527 | 73 | 249 | 6.1 | 7.0 | 0.00 | 0.27 | 0.27 | 31 | 1011.4 |
| 20260505230023 | 73 | 266 | 2.6 | 4.3 | 0.00 | 0.27 | 0.27 | 32 | 1011.4 |
| 20260505225520 | 73 | 256 | 5.2 | 7.0 | 0.00 | 0.27 | 0.27 | 32 | 1011.7 |
| 20260505225016 | 73 | 229 | 2.6 | 4.3 | 0.00 | 0.27 | 0.27 | 33 | 1011.6 |
| 20260505224514 | 73 | 269 | 2.6 | 4.3 | 0.00 | 0.27 | 0.27 | 33 | 1011.7 |
| 20260505224011 | 72 | 258 | 7.0 | 11.3 | 0.00 | 0.27 | 0.27 | 33 | 1011.6 |
| 20260505223508 | 71 | 257 | 5.2 | 7.0 | 0.00 | 0.27 | 0.27 | 34 | 1011.6 |
| 20260505223004 | 71 | 263 | 5.2 | 6.1 | 0.00 | 0.27 | 0.27 | 34 | 1011.8 |
| 20260505222500 | 71 | 160 | 5.2 | 6.1 | 0.00 | 0.27 | 0.27 | 35 | 1011.8 |
| 20260505221956 | 73 | 260 | 2.6 | 2.6 | 0.00 | 0.27 | 0.27 | 35 | 1011.9 |
| 20260505221453 | 71 | 263 | 1.7 | 2.6 | 0.00 | 0.27 | 0.27 | 36 | 1011.8 |
| 20260505220950 | 72 | 252 | 5.2 | 7.0 | 0.00 | 0.27 | 0.27 | 34 | 1011.8 |
| 20260505220447 | 70 | 195 | 2.6 | 2.6 | 0.00 | 0.27 | 0.27 | 37 | 1012.0 |
| 20260505215945 | 73 | 287 | 4.3 | 6.1 | 0.00 | 0.27 | 0.27 | 36 | 1012.0 |
| 20260505215443 | 74 | 259 | 3.5 | 5.2 | 0.00 | 0.27 | 0.27 | 35 | 1012.4 |
| 20260505214941 | 73 | 284 | 5.2 | 7.0 | 0.00 | 0.27 | 0.27 | 35 | 1012.1 |
| 20260505214438 | 72 | 244 | 2.6 | 4.3 | 0.00 | 0.27 | 0.27 | 37 | 1012.2 |
| 20260505213935 | 73 | 279 | 6.1 | 7.8 | 0.00 | 0.27 | 0.27 | 36 | 1012.7 |
| 20260505213433 | 71 | 201 | 3.5 | 5.2 | 0.00 | 0.27 | 0.27 | 39 | 1012.2 |
| 20260505212929 | 71 | 322 | 5.2 | 7.0 | 0.00 | 0.27 | 0.27 | 41 | 1012.2 |
| 20260505212426 | 70 | 278 | 4.3 | 5.2 | 0.00 | 0.27 | 0.27 | 44 | 1012.4 |
| 20260505211922 | 69 | 314 | 3.5 | 4.3 | 0.00 | 0.27 | 0.27 | 45 | 1012.1 |
| 20260505211420 | 70 | 257 | 5.2 | 7.0 | 0.00 | 0.27 | 0.27 | 45 | 1012.8 |
| 20260505210916 | 70 | 309 | 3.5 | 4.3 | 0.00 | 0.27 | 0.27 | 46 | 1012.5 |
| 20260505210414 | 68 | 278 | 2.6 | 4.3 | 0.00 | 0.27 | 0.27 | 49 | 1012.7 |
| 20260505205910 | 69 | 252 | 5.2 | 7.0 | 0.00 | 0.27 | 0.27 | 49 | 1012.8 |
| 20260505205409 | 68 | 266 | 4.3 | 7.0 | 0.00 | 0.27 | 0.27 | 52 | 1012.8 |
| 20260505204905 | 68 | 268 | 7.0 | 8.7 | 0.00 | 0.27 | 0.27 | 51 | 1012.9 |
| 20260505204403 | 69 | 257 | 5.2 | 6.1 | 0.00 | 0.27 | 0.27 | 51 | 1012.8 |
| 20260505203900 | 71 | 225 | 5.2 | 6.1 | 0.00 | 0.27 | 0.27 | 48 | 1012.7 |
| 20260505203356 | 70 | 218 | 3.5 | 5.2 | 0.00 | 0.27 | 0.27 | 49 | 1012.8 |
| 20260505202853 | 71 | 214 | 6.1 | 7.8 | 0.00 | 0.27 | 0.27 | 46 | 1012.7 |
| 20260505202349 | 73 | 216 | 4.3 | 5.2 | 0.00 | 0.27 | 0.27 | 43 | 1012.5 |
| 20260505201846 | 72 | 281 | 5.2 | 7.8 | 0.00 | 0.27 | 0.27 | 44 | 1012.9 |
| 20260505201343 | 71 | 159 | 2.6 | 2.6 | 0.00 | 0.27 | 0.27 | 50 | 1013.0 |
| 20260505200841 | 71 | 294 | 4.3 | 5.2 | 0.00 | 0.27 | 0.27 | 45 | 1012.7 |
| 20260505200338 | 71 | 275 | 2.6 | 5.2 | 0.00 | 0.27 | 0.27 | 51 | 1013.1 |
| 20260505195833 | 70 | 163 | 0.9 | 1.7 | 0.00 | 0.27 | 0.27 | 53 | 1012.9 |
| 20260505195331 | 70 | 192 | 3.5 | 5.2 | 0.00 | 0.27 | 0.27 | 52 | 1013.1 |
| 20260505194828 | 67 | 232 | 2.6 | 5.2 | 0.00 | 0.27 | 0.27 | 57 | 1013.2 |
| 20260505194325 | 68 | 277 | 4.3 | 5.2 | 0.00 | 0.27 | 0.27 | 58 | 1013.3 |
| 20260505193820 | 69 | 255 | 5.2 | 6.1 | 0.00 | 0.27 | 0.27 | 52 | 1013.0 |
| 20260505193318 | 68 | 265 | 5.2 | 6.1 | 0.00 | 0.27 | 0.27 | 56 | 1013.3 |
| 20260505192816 | 69 | 293 | 3.5 | 4.3 | 0.00 | 0.27 | 0.27 | 55 | 1013.2 |
| 20260505192314 | 69 | 271 | 1.7 | 2.6 | 0.00 | 0.27 | 0.27 | 55 | 1013.0 |
| 20260505191812 | 71 | 66 | 0.9 | 0.9 | 0.00 | 0.27 | 0.27 | 53 | 1013.2 |
| 20260505191310 | 69 | 204 | 0.0 | 0.0 | 0.00 | 0.27 | 0.27 | 56 | 1013.3 |
| 20260505190806 | 69 | 91 | 0.0 | 0.9 | 0.00 | 0.27 | 0.27 | 59 | 1013.6 |
| 20260505190301 | 68 | 250 | 0.9 | 0.9 | 0.00 | 0.27 | 0.27 | 57 | 1013.7 |
| 20260505185757 | 67 | 235 | 2.6 | 4.3 | 0.00 | 0.27 | 0.27 | 57 | 1013.8 |
| 20260505185254 | 66 | 251 | 1.7 | 1.7 | 0.00 | 0.27 | 0.27 | 61 | 1013.9 |
| 20260505184750 | 67 | 241 | 0.9 | 1.7 | 0.00 | 0.27 | 0.27 | 59 | 1013.9 |
| 20260505184248 | 66 | 269 | 1.7 | 2.6 | 0.00 | 0.27 | 0.27 | 62 | 1013.8 |
| 20260505183744 | 67 | 247 | 2.6 | 5.2 | 0.00 | 0.27 | 0.27 | 58 | 1013.9 |
| 20260505183242 | 67 | 243 | 1.7 | 1.7 | 0.00 | 0.27 | 0.27 | 59 | 1014.0 |
| 20260505182738 | 67 | 299 | 4.3 | 6.1 | 0.00 | 0.27 | 0.27 | 58 | 1014.1 |
| 20260505182235 | 66 | 234 | 1.7 | 1.7 | 0.00 | 0.27 | 0.27 | 64 | 1014.0 |
| 20260505181731 | 65 | 209 | 0.9 | 0.9 | 0.00 | 0.27 | 0.27 | 66 | 1014.0 |
| 20260505181229 | 65 | 122 | 0.9 | 0.9 | 0.00 | 0.27 | 0.27 | 64 | 1014.2 |
| 20260505180725 | 64 | 268 | 3.5 | 5.2 | 0.00 | 0.27 | 0.27 | 64 | 1014.3 |
| 20260505180222 | 66 | 241 | 2.6 | 2.6 | 0.00 | 0.27 | 0.27 | 63 | 1014.3 |
| 20260505175713 | 66 | 219 | 2.6 | 2.6 | 0.00 | 0.27 | 0.27 | 61 | 1014.1 |
| 20260505175209 | 67 | 198 | 2.6 | 2.6 | 0.00 | 0.27 | 0.27 | 64 | 1014.2 |
| 20260505174706 | 64 | 196 | 0.9 | 0.9 | 0.00 | 0.27 | 0.27 | 69 | 1014.4 |
| 20260505174203 | 64 | 239 | 0.9 | 1.7 | 0.00 | 0.27 | 0.27 | 67 | 1014.2 |
| 20260505173659 | 64 | 230 | 0.9 | 1.7 | 0.00 | 0.27 | 0.27 | 67 | 1014.2 |
| 20260505173156 | 63 | 263 | 1.7 | 1.7 | 0.00 | 0.27 | 0.27 | 70 | 1014.1 |
| 20260505172653 | 63 | 167 | 2.6 | 2.6 | 0.00 | 0.27 | 0.27 | 70 | 1014.2 |
| 20260505172149 | 64 | 236 | 1.7 | 1.7 | 0.00 | 0.27 | 0.27 | 71 | 1014.0 |
| 20260505171644 | 62 | 295 | 2.6 | 2.6 | 0.00 | 0.27 | 0.27 | 71 | 1014.2 |
| 20260505171141 | 62 | 199 | 0.0 | 0.9 | 0.00 | 0.27 | 0.27 | 73 | 1014.3 |
| 20260505170638 | 62 | 229 | 1.7 | 1.7 | 0.00 | 0.27 | 0.27 | 74 | 1014.3 |
| 20260505170134 | 62 | 262 | 0.9 | 1.7 | 0.00 | 0.27 | 0.27 | 74 | 1014.1 |
| 20260505165629 | 63 | 167 | 0.9 | 1.7 | 0.00 | 0.27 | 0.27 | 74 | 1014.0 |
| 20260505165126 | 63 | 280 | 0.9 | 0.9 | 0.00 | 0.27 | 0.27 | 75 | 1014.3 |
| 20260505164621 | 63 | 231 | 2.6 | 2.6 | 0.00 | 0.27 | 0.27 | 73 | 1014.4 |
| 20260505164119 | 62 | 195 | 2.6 | 2.6 | 0.00 | 0.27 | 0.27 | 77 | 1014.2 |
| 20260505163617 | 61 | 260 | 0.9 | 0.9 | 0.00 | 0.27 | 0.27 | 79 | 1014.2 |
| 20260505163114 | 60 | 169 | 2.6 | 4.3 | 0.00 | 0.27 | 0.27 | 79 | 1014.3 |
| 20260505162612 | 60 | 240 | 0.0 | 0.0 | 0.00 | 0.27 | 0.27 | 81 | 1014.5 |
| 20260505162110 | 60 | 195 | 0.9 | 1.7 | 0.00 | 0.27 | 0.27 | 82 | 1014.1 |
| 20260505161606 | 60 | 177 | 0.9 | 1.7 | 0.00 | 0.27 | 0.27 | 81 | 1014.3 |
| 20260505161104 | 60 | 197 | 0.9 | 1.7 | 0.00 | 0.27 | 0.27 | 84 | 1014.3 |
| 20260505160601 | 60 | 287 | 2.6 | 2.6 | 0.00 | 0.27 | 0.27 | 85 | 1014.1 |
| 20260505153038 | 59 | 192 | 0.0 | 0.0 | 0.00 | 0.27 | 0.27 | 91 | 1014.2 |
| 20260505152535 | 59 | 205 | 0.0 | 0.9 | 0.00 | 0.27 | 0.27 | 91 | 1014.1 |
| 20260505152030 | 58 | 195 | 0.0 | 0.9 | 0.00 | 0.27 | 0.27 | 91 | 1014.0 |
| 20260505151525 | 58 | 215 | 0.0 | 0.0 | 0.00 | 0.27 | 0.27 | 92 | 1014.1 |
| 20260505151023 | 58 | 223 | 0.0 | 0.0 | 0.00 | 0.27 | 0.27 | 92 | 1014.0 |
| 20260505150519 | 58 | 228 | 0.0 | 0.9 | 0.00 | 0.27 | 0.27 | 93 | 1014.0 |
| 20260505140444 | 56 | 297 | 0.0 | 0.0 | 0.00 | 0.27 | 0.27 | 97 | 1013.9 |
| 20260505124858 | 55 | 83 | 0.0 | 0.0 | 0.00 | 0.27 | 0.27 | 97 | 1013.1 |
| 20260505124355 | 55 | 41 | 0.0 | 0.0 | 0.00 | 0.27 | 0.27 | 97 | 1013.0 |
| 20260505123851 | 55 | 36 | 0.0 | 0.0 | 0.00 | 0.27 | 0.27 | 97 | 1012.9 |
| 20260505123348 | 55 | 35 | 0.0 | 0.0 | 0.00 | 0.27 | 0.27 | 97 | 1012.7 |
| 20260505122843 | 55 | 261 | 0.0 | 0.0 | 0.00 | 0.27 | 0.27 | 97 | 1012.8 |
| 20260505122341 | 55 | 273 | 0.9 | 0.9 | 0.00 | 0.27 | 0.27 | 97 | 1012.9 |
| 20260505121838 | 55 | 285 | 0.0 | 0.0 | 0.00 | 0.27 | 0.27 | 97 | 1012.9 |
| 20260505121335 | 55 | 323 | 0.9 | 0.9 | 0.00 | 0.27 | 0.27 | 97 | 1012.9 |
| 20260505120831 | 55 | 317 | 0.0 | 0.0 | 0.00 | 0.27 | 0.27 | 97 | 1012.9 |
| 20260505120327 | 55 | 23 | 0.9 | 0.9 | 0.00 | 0.27 | 0.27 | 97 | 1012.6 |
| 20260505115826 | 55 | 347 | 0.0 | 0.0 | 0.00 | 0.27 | 0.27 | 97 | 1012.7 |
| 20260505115323 | 55 | 349 | 0.9 | 0.9 | 0.00 | 0.27 | 0.27 | 97 | 1012.5 |
| 20260505114821 | 55 | 79 | 0.0 | 0.0 | 0.05 | 0.27 | 0.27 | 97 | 1012.4 |
| 20260505114317 | 55 | 39 | 0.0 | 0.9 | 0.05 | 0.27 | 0.27 | 97 | 1012.6 |
| 20260505113814 | 56 | 258 | 0.0 | 0.0 | 0.00 | 0.26 | 0.26 | 97 | 1012.7 |
| 20260505113310 | 56 | 294 | 0.9 | 0.9 | 0.00 | 0.26 | 0.26 | 97 | 1012.7 |
| 20260505112806 | 56 | 303 | 0.9 | 0.9 | 0.00 | 0.26 | 0.26 | 97 | 1012.8 |
| 20260505112305 | 56 | 26 | 0.9 | 0.9 | 0.00 | 0.26 | 0.26 | 97 | 1012.6 |
| 20260505111759 | 56 | 59 | 0.0 | 0.0 | 0.00 | 0.26 | 0.26 | 97 | 1012.7 |
| 20260505111254 | 56 | 42 | 0.9 | 0.9 | 0.07 | 0.26 | 0.26 | 97 | 1012.6 |
| 20260505110750 | 56 | 54 | 0.0 | 0.9 | 0.07 | 0.26 | 0.26 | 97 | 1012.8 |
| 20260505110249 | 56 | 4 | 0.0 | 0.0 | 0.00 | 0.25 | 0.25 | 97 | 1012.9 |
| 20260505101722 | 56 | 24 | 0.9 | 0.9 | 0.07 | 0.22 | 0.22 | 97 | 1013.4 |
| 20260505101218 | 56 | 305 | 0.9 | 0.9 | 0.00 | 0.21 | 0.21 | 97 | 1013.6 |
| 20260505100715 | 56 | 301 | 0.0 | 0.0 | 0.00 | 0.21 | 0.21 | 97 | 1013.6 |
| 20260505100212 | 56 | 297 | 0.9 | 0.9 | 0.00 | 0.21 | 0.21 | 97 | 1013.6 |
| 20260505095707 | 56 | 338 | 0.0 | 0.9 | 0.00 | 0.21 | 0.21 | 97 | 1013.2 |
| 20260505095206 | 56 | 56 | 0.0 | 0.0 | 0.05 | 0.21 | 0.21 | 97 | 1013.3 |
| 20260505094701 | 56 | 10 | 0.0 | 0.9 | 0.05 | 0.21 | 0.21 | 97 | 1013.3 |
| 20260505094157 | 56 | 65 | 0.0 | 0.0 | 0.07 | 0.20 | 0.20 | 96 | 1013.2 |
| 20260505093654 | 56 | 63 | 0.0 | 0.9 | 0.07 | 0.20 | 0.20 | 96 | 1013.7 |
| 20260505093151 | 56 | 64 | 0.0 | 0.0 | 0.05 | 0.19 | 0.19 | 96 | 1013.7 |
| 20260505092648 | 56 | 66 | 0.0 | 0.0 | 0.05 | 0.19 | 0.19 | 96 | 1014.1 |
| 20260505092147 | 56 | 40 | 0.0 | 0.0 | 0.00 | 0.18 | 0.18 | 96 | 1013.8 |
| 20260505091643 | 56 | 70 | 0.0 | 0.9 | 0.07 | 0.18 | 0.18 | 96 | 1013.9 |
| 20260505091141 | 56 | 53 | 0.0 | 0.0 | 0.07 | 0.18 | 0.18 | 96 | 1013.9 |
| 20260505090639 | 56 | 301 | 0.0 | 0.9 | 0.07 | 0.17 | 0.17 | 96 | 1013.7 |
| 20260505090137 | 56 | 282 | 0.0 | 0.0 | 0.07 | 0.17 | 0.17 | 96 | 1014.3 |
| 20260505085634 | 56 | 288 | 0.9 | 0.9 | 0.05 | 0.16 | 0.16 | 96 | 1014.0 |
| 20260505085132 | 55 | 240 | 0.0 | 0.0 | 0.05 | 0.16 | 0.16 | 96 | 1014.2 |
| 20260505084629 | 56 | 219 | 0.0 | 0.0 | 0.07 | 0.15 | 0.15 | 96 | 1014.4 |
| 20260505084128 | 56 | 213 | 0.0 | 0.9 | 0.12 | 0.15 | 0.15 | 96 | 1014.7 |
| 20260505083625 | 56 | 196 | 0.0 | 0.9 | 0.05 | 0.14 | 0.14 | 96 | 1014.8 |
| 20260505083121 | 56 | 208 | 0.9 | 0.9 | 0.07 | 0.13 | 0.13 | 96 | 1015.1 |
| 20260505082617 | 56 | 209 | 0.9 | 0.9 | 0.12 | 0.13 | 0.13 | 96 | 1015.2 |
| 20260505082114 | 56 | 185 | 0.0 | 0.0 | 0.05 | 0.12 | 0.12 | 96 | 1015.2 |
| 20260505081610 | 56 | 194 | 0.9 | 0.9 | 0.07 | 0.11 | 0.11 | 96 | 1015.4 |
| 20260505081108 | 56 | 203 | 0.0 | 0.0 | 0.12 | 0.11 | 0.11 | 96 | 1015.5 |
| 20260505080604 | 56 | 179 | 0.0 | 0.0 | 0.05 | 0.10 | 0.10 | 96 | 1016.0 |
| 20260505075556 | 56 | 140 | 0.0 | 0.0 | 0.12 | 0.09 | 0.09 | 96 | 1015.6 |
| 20260505075053 | 57 | 142 | 0.0 | 0.0 | 0.12 | 0.08 | 0.08 | 96 | 1016.1 |
| 20260505074550 | 57 | 143 | 0.0 | 0.0 | 0.19 | 0.07 | 0.07 | 96 | 1016.3 |
| 20260505074048 | 56 | 145 | 0.0 | 0.0 | 0.12 | 0.06 | 0.06 | 96 | 1016.1 |
| 20260505073545 | 56 | 144 | 0.0 | 0.0 | 0.14 | 0.05 | 0.05 | 96 | 1016.4 |
| 20260505073044 | 56 | 140 | 0.0 | 0.0 | 0.12 | 0.04 | 0.04 | 96 | 1016.5 |
| 20260505072539 | 56 | 138 | 0.0 | 0.0 | 0.05 | 0.03 | 0.03 | 96 | 1016.4 |
| 20260505072035 | 56 | 131 | 0.0 | 0.0 | 0.07 | 0.02 | 0.02 | 95 | 1016.5 |
| 20260505071530 | 57 | 130 | 0.0 | 0.0 | 0.07 | 0.02 | 0.02 | 95 | 1016.2 |
| 20260505071029 | 57 | 129 | 0.0 | 0.0 | 0.05 | 0.01 | 0.01 | 95 | 1016.2 |
| 20260505070526 | 56 | 135 | 0.0 | 0.0 | 0.12 | 0.01 | 0.01 | 95 | 1016.3 |
| 20260505070022 | 56 | 135 | 0.0 | 0.0 | 0.12 | 0.26 | 0.26 | 95 | 1016.6 |
| 20260505065518 | 56 | 190 | 0.0 | 0.0 | 0.05 | 0.25 | 0.25 | 95 | 1016.5 |
| 20260505065014 | 56 | 191 | 0.0 | 0.0 | 0.12 | 0.25 | 0.25 | 95 | 1016.3 |
| 20260505064512 | 56 | 191 | 0.0 | 0.0 | 0.12 | 0.24 | 0.24 | 95 | 1016.2 |
| 20260505064010 | 56 | 258 | 0.9 | 0.9 | 0.05 | 0.23 | 0.23 | 95 | 1016.2 |
| 20260505063507 | 57 | 204 | 0.0 | 0.9 | 0.12 | 0.23 | 0.23 | 94 | 1016.2 |
| 20260505063003 | 57 | 178 | 0.0 | 0.0 | 0.12 | 0.22 | 0.22 | 94 | 1016.3 |
| 20260505062500 | 57 | 184 | 0.0 | 0.0 | 0.05 | 0.21 | 0.21 | 94 | 1016.1 |
| 20260505061956 | 56 | 197 | 0.0 | 0.0 | 0.00 | 0.20 | 0.20 | 94 | 1016.4 |
| 20260505061455 | 56 | 170 | 0.9 | 0.9 | 0.00 | 0.20 | 0.20 | 94 | 1016.3 |
| 20260505060952 | 56 | 183 | 0.0 | 0.9 | 0.07 | 0.20 | 0.20 | 94 | 1016.3 |
| 20260505060449 | 56 | 286 | 2.6 | 4.3 | 0.07 | 0.20 | 0.20 | 94 | 1016.2 |
| 20260505055945 | 56 | 266 | 0.0 | 0.9 | 0.00 | 0.19 | 0.19 | 94 | 1016.2 |
| 20260505055441 | 56 | 254 | 0.0 | 0.9 | 0.00 | 0.19 | 0.19 | 94 | 1016.1 |
| 20260505054938 | 56 | 239 | 0.9 | 1.7 | 0.05 | 0.19 | 0.19 | 94 | 1016.2 |
| 20260505054436 | 56 | 245 | 0.9 | 0.9 | 0.05 | 0.19 | 0.19 | 94 | 1016.2 |
| 20260505053933 | 56 | 260 | 1.7 | 1.7 | 0.00 | 0.18 | 0.18 | 94 | 1016.1 |
| 20260505053430 | 56 | 297 | 0.9 | 0.9 | 0.00 | 0.18 | 0.18 | 94 | 1015.9 |
| 20260505052927 | 56 | 171 | 0.0 | 0.0 | 0.00 | 0.18 | 0.18 | 94 | 1016.0 |
| 20260505052424 | 56 | 157 | 0.0 | 0.0 | 0.00 | 0.18 | 0.18 | 94 | 1015.8 |
| 20260505051921 | 56 | 157 | 0.0 | 0.0 | 0.00 | 0.18 | 0.18 | 94 | 1015.9 |
| 20260505051418 | 56 | 157 | 0.0 | 0.0 | 0.00 | 0.18 | 0.18 | 94 | 1015.9 |
| 20260505050917 | 56 | 146 | 0.0 | 0.0 | 0.07 | 0.18 | 0.18 | 94 | 1015.8 |
| 20260505050414 | 56 | 136 | 0.0 | 0.0 | 0.07 | 0.18 | 0.18 | 93 | 1016.1 |
| 20260505041342 | 57 | 201 | 2.6 | 2.6 | 0.12 | 0.13 | 0.13 | 87 | 1016.1 |
| 20260505040839 | 57 | 232 | 1.7 | 4.3 | 0.05 | 0.12 | 0.12 | 85 | 1016.1 |
| 20260505040337 | 58 | 210 | 2.6 | 2.6 | 0.05 | 0.12 | 0.12 | 83 | 1016.0 |
| 20260505035833 | 58 | 190 | 1.7 | 1.7 | 0.00 | 0.11 | 0.11 | 81 | 1016.0 |
| 20260505035329 | 57 | 221 | 2.6 | 4.3 | 0.00 | 0.11 | 0.11 | 83 | 1015.9 |
| 20260505034826 | 57 | 270 | 3.5 | 5.2 | 0.00 | 0.11 | 0.11 | 86 | 1015.9 |
| 20260505034323 | 57 | 253 | 1.7 | 1.7 | 0.00 | 0.11 | 0.11 | 87 | 1015.5 |
| 20260505033820 | 57 | 321 | 3.5 | 4.3 | 0.00 | 0.11 | 0.11 | 89 | 1015.1 |
| 20260505033317 | 57 | 260 | 1.7 | 1.7 | 0.07 | 0.11 | 0.11 | 91 | 1014.8 |
| 20260505032815 | 57 | 289 | 0.9 | 0.9 | 0.07 | 0.11 | 0.11 | 91 | 1014.8 |
| 20260505032311 | 57 | 204 | 0.9 | 0.9 | 0.00 | 0.10 | 0.10 | 92 | 1014.8 |
| 20260505031808 | 57 | 244 | 1.7 | 1.7 | 0.00 | 0.10 | 0.10 | 92 | 1014.8 |
| 20260505031304 | 57 | 253 | 0.9 | 1.7 | 0.00 | 0.10 | 0.10 | 92 | 1014.8 |
| 20260505030802 | 57 | 243 | 1.7 | 1.7 | 0.00 | 0.10 | 0.10 | 93 | 1015.3 |
| 20260505030258 | 56 | 246 | 0.9 | 1.7 | 0.00 | 0.10 | 0.10 | 93 | 1015.3 |
| 20260505025753 | 56 | 228 | 0.9 | 0.9 | 0.00 | 0.10 | 0.10 | 93 | 1015.3 |
| 20260505025251 | 55 | 193 | 0.9 | 0.9 | 0.00 | 0.10 | 0.10 | 93 | 1015.0 |
| 20260505024749 | 55 | 144 | 0.9 | 0.9 | 0.05 | 0.10 | 0.10 | 93 | 1014.9 |
| 20260505024247 | 54 | 136 | 0.0 | 0.0 | 0.05 | 0.10 | 0.10 | 93 | 1015.0 |
| 20260505023744 | 54 | 142 | 0.9 | 0.9 | 0.00 | 0.09 | 0.09 | 93 | 1015.0 |
| 20260505023241 | 54 | 156 | 0.0 | 0.0 | 0.00 | 0.09 | 0.09 | 92 | 1015.2 |
| 20260505022738 | 54 | 143 | 0.0 | 0.0 | 0.07 | 0.09 | 0.09 | 92 | 1015.3 |
| 20260505022235 | 55 | 149 | 0.0 | 0.0 | 0.07 | 0.09 | 0.09 | 92 | 1015.8 |
| 20260505021732 | 55 | 137 | 0.0 | 0.9 | 0.05 | 0.08 | 0.08 | 91 | 1015.8 |
| 20260505021229 | 55 | 160 | 0.0 | 0.0 | 0.05 | 0.08 | 0.08 | 90 | 1016.0 |
| 20260505020724 | 55 | 145 | 0.0 | 0.0 | 0.07 | 0.07 | 0.07 | 89 | 1016.2 |
| 20260505020220 | 55 | 174 | 0.0 | 0.0 | 0.12 | 0.07 | 0.07 | 88 | 1016.1 |
| 20260505015718 | 55 | 169 | 0.0 | 0.0 | 0.12 | 0.06 | 0.06 | 87 | 1016.4 |
| 20260505015214 | 56 | 177 | 0.0 | 0.0 | 0.14 | 0.05 | 0.05 | 84 | 1016.1 |
| 20260505014711 | 56 | 156 | 0.0 | 0.0 | 0.07 | 0.04 | 0.04 | 82 | 1016.2 |
| 20260505014209 | 57 | 178 | 0.0 | 0.9 | 0.12 | 0.04 | 0.04 | 79 | 1016.1 |
| 20260505013705 | 58 | 170 | 0.9 | 0.9 | 0.12 | 0.03 | 0.03 | 76 | 1016.2 |
| 20260505013202 | 59 | 9 | 1.7 | 2.6 | 0.07 | 0.02 | 0.02 | 71 | 1016.1 |
| 20260505012701 | 61 | 199 | 1.7 | 1.7 | 0.05 | 0.01 | 0.01 | 65 | 1016.0 |
| 20260505012158 | 62 | 245 | 2.6 | 2.6 | 0.05 | 0.01 | 0.01 | 60 | 1015.8 |
| 20260505011653 | 64 | 205 | 2.6 | 4.3 | 0.00 | 0.00 | 0.00 | 52 | 1015.4 |
| 20260505011150 | 64 | 176 | 0.9 | 0.9 | 0.00 | 0.00 | 0.00 | 49 | 1015.2 |
| 20260505010646 | 64 | 236 | 1.7 | 2.6 | 0.00 | 0.00 | 0.00 | 49 | 1015.3 |
| 20260505010143 | 64 | 219 | 1.7 | 1.7 | 0.00 | 0.00 | 0.00 | 50 | 1015.5 |
| 20260505005638 | 65 | 163 | 1.7 | 1.7 | 0.00 | 0.00 | 0.00 | 50 | 1015.4 |
| 20260505005136 | 67 | 166 | 2.6 | 2.6 | 0.00 | 0.00 | 0.00 | 44 | 1015.1 |
| 20260505004633 | 67 | 201 | 1.7 | 1.7 | 0.00 | 0.00 | 0.00 | 42 | 1015.3 |
| 20260505004129 | 68 | 263 | 4.3 | 6.1 | 0.00 | 0.00 | 0.00 | 42 | 1015.1 |
| 20260505003627 | 68 | 143 | 2.6 | 4.3 | 0.00 | 0.00 | 0.00 | 42 | 1015.3 |
| 20260505003124 | 68 | 228 | 1.7 | 1.7 | 0.00 | 0.00 | 0.00 | 41 | 1015.2 |
| 20260505002620 | 68 | 206 | 1.7 | 1.7 | 0.00 | 0.00 | 0.00 | 42 | 1015.2 |